Time;durP1;ratioP1;P1;durP2;ratioP2;P2;SDS_P1;SDS_P2;PMS_P1;PMS_P2;Temp;Humidity;BMP_temperature;BMP_pressure;BME280_temperature;BME280_humidity;BME280_pressure;Samples;Min_cycle;Max_cycle;Signal;HPM_P1;HPM_P2
2023/04/11 00:00:01;;;;;;;;;;;;;;;;;;6138779;23;20309;-87
2023/04/11 00:02:29;;;;;;;;;;;;;;;;;;6138698;23;19987;-88
2023/04/11 00:04:56;;;;;;;;;;;;;;;;;;6138309;23;19916;-88
2023/04/11 00:07:21;;;;;;;;;;;;;;;;;;6163205;23;19916;-88
2023/04/11 00:09:47;;;;;;;;;;;;;;;;;;6137912;23;19923;-88
2023/04/11 00:12:13;;;;;;;;;;;;;;;;;;6137988;23;19976;-89
2023/04/11 00:14:44;;;;;;;;;;;;;;;;;;6137679;23;19916;-88
2023/04/11 00:17:11;;;;;;;;;;;;;;;;;;6162359;23;20335;-87
2023/04/11 00:19:37;;;;;;;;;;;;;;;;;;6137442;23;20255;-86
2023/04/11 00:22:03;;;;;;;;;;;;;;;;;;6137814;23;19920;-88
2023/04/11 00:24:29;;;;;;;;;;;;;;;;;;6137977;23;19916;-88
2023/04/11 00:26:56;;;;;;;;;;;;;;;;;;6162082;23;19991;-87
2023/04/11 00:29:22;;;;;;;;;;;;;;;;;;6137445;23;19923;-86
2023/04/11 00:31:48;;;;;;;;;;;;;;;;;;6137089;23;19920;-86
2023/04/11 00:34:14;;;;;;;;;;;;;;;;;;6162092;23;19925;-88
2023/04/11 00:36:40;;;;;;;;;;;;;;;;;;6137610;23;19996;-87
2023/04/11 00:39:06;;;;;;;;;;;;;;;;;;6137451;23;19916;-89
2023/04/11 00:41:32;;;;;;;;;;;;;;;;;;6137683;23;20255;-86
2023/04/11 00:43:58;;;;;;;;;;;;;;;;;;6137536;23;19916;-88
2023/04/11 00:46:24;;;;;;;;;;;;;;;;;;6137318;23;20266;-87
2023/04/11 00:48:50;;;;;;;;;;;;;;;;;;6137416;23;20250;-88
2023/04/11 00:51:16;;;;;;;;;;;;;;;;;;6137381;23;19923;-88
2023/04/11 00:53:42;;;;;;;;;;;;;;;;;;6162602;23;19916;-88
2023/04/11 00:56:07;;;;;;;;;;;;;;;;;;6137430;23;19939;-85
2023/04/11 00:58:36;;;;;;;;;;;;;;;;;;6161805;23;19918;-88
2023/04/11 01:01:07;;;;;;;;;;;;;;;;;;6137005;23;19975;-88
2023/04/11 01:03:33;;;;;;;;;;;;;;;;;;6137143;23;19944;-88
2023/04/11 01:05:59;;;;;;;;;;;;;;;;;;6137360;23;19916;-88
2023/04/11 01:08:25;;;;;;;;;;;;;;;;;;6137175;23;19978;-87
2023/04/11 01:10:51;;;;;;;;;;;;;;;;;;6136869;23;19924;-88
2023/04/11 01:13:17;;;;;;;;;;;;;;;;;;6136902;23;19972;-87
2023/04/11 01:15:43;;;;;;;;;;;;;;;;;;6136302;23;20238;-88
2023/04/11 01:18:09;;;;;;;;;;;;;;;;;;6136249;23;19916;-88
2023/04/11 01:20:34;;;;;;;;;;;;;;;;;;6161192;23;19924;-87
2023/04/11 01:23:00;;;;;;;;;;;;;;;;;;6137269;23;19916;-88
2023/04/11 01:25:26;;;;;;;;;;;;;;;;;;6137982;23;19923;-89
2023/04/11 01:27:52;;;;;;;;;;;;;;;;;;6139215;23;20327;-89
2023/04/11 01:30:18;;;;;;;;;;;;;;;;;;6138648;23;19916;-89
2023/04/11 01:32:44;;;;;;;;;;;;;;;;;;6138444;23;19920;-90
2023/04/11 01:35:13;;;;;;;;;;;;;;;;;;6139072;23;20319;-87
2023/04/11 01:37:39;;;;;;;;;;;;;;;;;;6138367;23;20035;-90
2023/04/11 01:40:06;;;;;;;;;;;;;;;;;;6137692;23;19924;-89
2023/04/11 01:42:31;;;;;;;;;;;;;;;;;;6162793;23;20290;-89
2023/04/11 01:44:57;;;;;;;;;;;;;;;;;;6136840;23;19916;-88
2023/04/11 01:47:23;;;;;;;;;;;;;;;;;;6137001;23;19963;-89
2023/04/11 01:49:49;;;;;;;;;;;;;;;;;;6136613;23;19920;-89
2023/04/11 01:52:15;;;;;;;;;;;;;;;;;;6161898;23;19923;-88
2023/04/11 01:54:41;;;;;;;;;;;;;;;;;;6162423;23;20250;-87
2023/04/11 01:57:07;;;;;;;;;;;;;;;;;;6137511;23;19916;-89
2023/04/11 01:59:33;;;;;;;;;;;;;;;;;;6136599;23;19916;-88
2023/04/11 02:01:59;;;;;;;;;;;;;;;;;;6137233;23;19924;-87
2023/04/11 02:04:25;;;;;;;;;;;;;;;;;;6161793;23;19920;-88
2023/04/11 02:06:51;;;;;;;;;;;;;;;;;;6161618;23;20250;-88
2023/04/11 02:09:17;;;;;;;;;;;;;;;;;;6136347;23;19916;-88
2023/04/11 02:11:42;;;;;;;;;;;;;;;;;;6136272;23;19979;-89
2023/04/11 02:14:08;;;;;;;;;;;;;;;;;;6138607;23;19916;-89
2023/04/11 02:16:36;;;;;;;;;;;;;;;;;;6138562;23;20347;-89
2023/04/11 02:19:02;;;;;;;;;;;;;;;;;;6137093;23;20295;-88
2023/04/11 02:21:28;;;;;;;;;;;;;;;;;;6137522;23;19920;-90
2023/04/11 02:23:54;;;;;;;;;;;;;;;;;;6136998;23;19928;-89
2023/04/11 02:26:20;;;;;;;;;;;;;;;;;;6137347;23;19916;-89
2023/04/11 02:28:46;;;;;;;;;;;;;;;;;;6136708;23;19920;-89
2023/04/11 02:31:12;;;;;;;;;;;;;;;;;;6136947;23;19955;-88
2023/04/11 02:33:38;;;;;;;;;;;;;;;;;;6137378;23;19999;-89
2023/04/11 02:36:03;;;;;;;;;;;;;;;;;;6137468;23;20220;-89
2023/04/11 02:38:29;;;;;;;;;;;;;;;;;;6137260;23;19916;-89
2023/04/11 02:40:55;;;;;;;;;;;;;;;;;;6161330;23;19921;-89
2023/04/11 02:43:21;;;;;;;;;;;;;;;;;;6137479;23;19921;-89
2023/04/11 02:45:47;;;;;;;;;;;;;;;;;;6136623;23;19951;-90
2023/04/11 02:48:13;;;;;;;;;;;;;;;;;;6136377;23;20427;-89
2023/04/11 02:50:39;;;;;;;;;;;;;;;;;;6161473;23;19916;-89
2023/04/11 02:53:06;;;;;;;;;;;;;;;;;;6138202;23;19916;-88
2023/04/11 02:55:32;;;;;;;;;;;;;;;;;;6138113;23;19938;-88
2023/04/11 02:57:58;;;;;;;;;;;;;;;;;;6138160;23;20347;-88
2023/04/11 03:00:25;;;;;;;;;;;;;;;;;;6137728;23;19997;-90
2023/04/11 03:02:50;;;;;;;;;;;;;;;;;;6138197;23;19917;-89
2023/04/11 03:05:16;;;;;;;;;;;;;;;;;;6138250;23;19964;-89
2023/04/11 03:07:42;;;;;;;;;;;;;;;;;;6137718;23;19923;-88
2023/04/11 03:10:08;;;;;;;;;;;;;;;;;;6161995;23;19923;-87
2023/04/11 03:12:34;;;;;;;;;;;;;;;;;;6137257;23;19995;-87
2023/04/11 03:15:00;;;;;;;;;;;;;;;;;;6137547;23;19916;-89
2023/04/11 03:17:26;;;;;;;;;;;;;;;;;;6137373;23;19916;-89
2023/04/11 03:19:52;;;;;;;;;;;;;;;;;;6137361;23;19970;-86
2023/04/11 03:22:18;;;;;;;;;;;;;;;;;;6161912;23;20256;-88
2023/04/11 03:24:44;;;;;;;;;;;;;;;;;;6137220;23;19916;-88
2023/04/11 03:27:10;;;;;;;;;;;;;;;;;;6137560;23;19916;-89
2023/04/11 03:29:38;;;;;;;;;;;;;;;;;;6137555;23;19916;-88
2023/04/11 03:32:04;;;;;;;;;;;;;;;;;;6162120;23;20126;-88
2023/04/11 03:34:30;;;;;;;;;;;;;;;;;;6137385;23;19923;-87
2023/04/11 03:36:56;;;;;;;;;;;;;;;;;;6137240;23;19916;-88
2023/04/11 03:39:22;;;;;;;;;;;;;;;;;;6136979;23;19992;-88
2023/04/11 03:41:47;;;;;;;;;;;;;;;;;;6137608;23;19986;-88
2023/04/11 03:44:13;;;;;;;;;;;;;;;;;;6137752;23;19917;-86
2023/04/11 03:46:39;;;;;;;;;;;;;;;;;;6137440;23;19920;-86
2023/04/11 03:49:05;;;;;;;;;;;;;;;;;;6162530;23;19916;-86
2023/04/11 03:51:32;;;;;;;;;;;;;;;;;;6137230;23;19916;-88
2023/04/11 03:53:58;;;;;;;;;;;;;;;;;;6162048;23;19916;-88
2023/04/11 03:56:24;;;;;;;;;;;;;;;;;;6137084;23;19917;-86
2023/04/11 03:58:50;;;;;;;;;;;;;;;;;;6137640;23;19916;-88
2023/04/11 04:01:16;;;;;;;;;;;;;;;;;;6136894;23;20253;-87
2023/04/11 04:03:42;;;;;;;;;;;;;;;;;;6161015;23;19916;-87
2023/04/11 04:06:08;;;;;;;;;;;;;;;;;;6135968;23;20317;-88
2023/04/11 04:08:34;;;;;;;;;;;;;;;;;;6134872;23;19926;-88
2023/04/11 04:11:00;;;;;;;;;;;;;;;;;;6135984;23;20236;-88
2023/04/11 04:13:26;;;;;;;;;;;;;;;;;;6160606;23;20004;-87
2023/04/11 04:15:51;;;;;;;;;;;;;;;;;;6135620;23;19951;-87
2023/04/11 04:18:17;;;;;;;;;;;;;;;;;;6136423;23;20271;-88
2023/04/11 04:20:43;;;;;;;;;;;;;;;;;;6160253;23;19926;-88
2023/04/11 04:23:12;;;;;;;;;;;;;;;;;;6136718;23;19948;-87
2023/04/11 04:25:40;;;;;;;;;;;;;;;;;;6136431;23;19916;-89
2023/04/11 04:28:06;;;;;;;;;;;;;;;;;;6137563;23;19963;-88
2023/04/11 04:30:36;;;;;;;;;;;;;;;;;;6162661;23;19916;-87
2023/04/11 04:33:02;;;;;;;;;;;;;;;;;;6138128;23;19916;-86
2023/04/11 04:35:28;;;;;;;;;;;;;;;;;;6137609;23;20425;-87
2023/04/11 04:37:54;;;;;;;;;;;;;;;;;;6137409;23;19976;-88
2023/04/11 04:40:21;;;;;;;;;;;;;;;;;;6137743;23;19967;-88
2023/04/11 04:42:56;;;;;;;;;;;;;;;;;;6138430;23;19916;-88
2023/04/11 04:45:22;;;;;;;;;;;;;;;;;;6136681;23;20259;-88
2023/04/11 04:47:48;;;;;;;;;;;;;;;;;;6136676;23;19916;-88
2023/04/11 04:50:15;;;;;;;;;;;;;;;;;;6136662;23;19920;-88
2023/04/11 04:52:41;;;;;;;;;;;;;;;;;;6160898;23;19920;-86
2023/04/11 04:55:07;;;;;;;;;;;;;;;;;;6136361;23;19916;-88
2023/04/11 04:57:33;;;;;;;;;;;;;;;;;;6136019;23;19916;-88
2023/04/11 04:59:58;;;;;;;;;;;;;;;;;;6159824;23;20235;-88
2023/04/11 05:02:25;;;;;;;;;;;;;;;;;;6160259;23;19974;-88
2023/04/11 05:04:52;;;;;;;;;;;;;;;;;;6135880;23;19916;-88
2023/04/11 05:07:19;;;;;;;;;;;;;;;;;;6135818;23;19974;-88
2023/04/11 05:09:45;;;;;;;;;;;;;;;;;;6135937;23;19916;-87
2023/04/11 05:12:12;;;;;;;;;;;;;;;;;;6160434;23;19991;-86
2023/04/11 05:14:38;;;;;;;;;;;;;;;;;;6159994;23;19920;-87
2023/04/11 05:17:05;;;;;;;;;;;;;;;;;;6135690;23;19916;-88
2023/04/11 05:19:31;;;;;;;;;;;;;;;;;;6135629;23;19923;-89
2023/04/11 05:21:57;;;;;;;;;;;;;;;;;;6160272;23;20359;-88
2023/04/11 05:24:23;;;;;;;;;;;;;;;;;;6135682;23;19917;-89
2023/04/11 05:26:49;;;;;;;;;;;;;;;;;;6135792;23;19940;-88
2023/04/11 05:29:15;;;;;;;;;;;;;;;;;;6135644;23;19963;-87
2023/04/11 05:31:41;;;;;;;;;;;;;;;;;;6160306;23;19916;-88
2023/04/11 05:34:06;;;;;;;;;;;;;;;;;;6135933;23;20293;-88
2023/04/11 05:36:32;;;;;;;;;;;;;;;;;;6134396;23;20034;-88
2023/04/11 05:38:58;;;;;;;;;;;;;;;;;;6135940;23;19924;-88
2023/04/11 05:41:24;;;;;;;;;;;;;;;;;;6136129;23;19971;-88
2023/04/11 05:43:50;;;;;;;;;;;;;;;;;;6136045;23;19944;-88
2023/04/11 05:46:17;;;;;;;;;;;;;;;;;;6135955;23;20407;-87
2023/04/11 05:48:43;;;;;;;;;;;;;;;;;;6135925;23;19924;-89
2023/04/11 05:51:09;;;;;;;;;;;;;;;;;;6136271;23;19920;-88
2023/04/11 05:53:35;;;;;;;;;;;;;;;;;;6161209;23;19995;-89
2023/04/11 05:56:01;;;;;;;;;;;;;;;;;;6160981;23;20279;-88
2023/04/11 05:58:28;;;;;;;;;;;;;;;;;;6136277;23;19916;-87
2023/04/11 06:00:54;;;;;;;;;;;;;;;;;;6135774;23;20170;-88
2023/04/11 06:03:20;;;;;;;;;;;;;;;;;;6136397;23;19920;-88
2023/04/11 06:05:46;;;;;;;;;;;;;;;;;;6136222;23;20028;-86
2023/04/11 06:08:12;;;;;;;;;;;;;;;;;;6134848;23;19916;-87
2023/04/11 06:10:38;;;;;;;;;;;;;;;;;;6134950;23;19962;-87
2023/04/11 06:13:04;;;;;;;;;;;;;;;;;;6135396;23;19917;-87
2023/04/11 06:15:30;;;;;;;;;;;;;;;;;;6159385;23;20305;-86
2023/04/11 06:17:56;;;;;;;;;;;;;;;;;;6135034;23;19927;-86
2023/04/11 06:20:21;;;;;;;;;;;;;;;;;;6158977;23;19916;-86
2023/04/11 06:22:50;;;;;;;;;;;;;;;;;;6134524;23;19921;-87
2023/04/11 06:25:16;;;;;;;;;;;;;;;;;;6134838;23;19923;-87
2023/04/11 06:27:41;;;;;;;;;;;;;;;;;;6136077;23;19916;-88
2023/04/11 06:30:08;;;;;;;;;;;;;;;;;;6134752;23;19987;-87
2023/04/11 06:32:34;;;;;;;;;;;;;;;;;;6137336;23;19928;-90
2023/04/11 06:35:00;;;;;;;;;;;;;;;;;;6144711;23;20242;-89
2023/04/11 06:37:26;;;;;;;;;;;;;;;;;;6137473;23;20298;-88
2023/04/11 06:39:52;;;;;;;;;;;;;;;;;;6137800;23;19916;-87
2023/04/11 06:42:18;;;;;;;;;;;;;;;;;;6139149;23;20003;-88
2023/04/11 06:44:44;;;;;;;;;;;;;;;;;;6137935;23;19991;-88
2023/04/11 06:47:10;;;;;;;;;;;;;;;;;;6137552;23;19974;-87
2023/04/11 06:49:36;;;;;;;;;;;;;;;;;;6137882;23;19920;-89
2023/04/11 06:52:02;;;;;;;;;;;;;;;;;;6138956;23;19990;-88
2023/04/11 06:54:28;;;;;;;;;;;;;;;;;;6140416;23;19916;-88
2023/04/11 06:56:56;;;;;;;;;;;;;;;;;;6166588;23;19939;-88
2023/04/11 06:59:21;;;;;;;;;;;;;;;;;;6140988;23;19916;-89
2023/04/11 07:01:47;;;;;;;;;;;;;;;;;;6140039;23;19927;-87
2023/04/11 07:04:13;;;;;;;;;;;;;;;;;;6139004;23;19916;-88
2023/04/11 07:06:39;;;;;;;;;;;;;;;;;;6139917;23;19964;-88
2023/04/11 07:09:05;;;;;;;;;;;;;;;;;;6142046;23;19920;-87
2023/04/11 07:11:31;;;;;;;;;;;;;;;;;;6141102;23;19971;-89
2023/04/11 07:13:57;;;;;;;;;;;;;;;;;;6142776;23;19916;-86
2023/04/11 07:16:25;;;;;;;;;;;;;;;;;;6164565;23;20361;-89
2023/04/11 07:18:51;;;;;;;;;;;;;;;;;;6140194;23;19970;-89
2023/04/11 07:21:17;;;;;;;;;;;;;;;;;;6140463;23;19925;-88
2023/04/11 07:23:43;;;;;;;;;;;;;;;;;;6139313;23;20327;-88
2023/04/11 07:26:10;;;;;;;;;;;;;;;;;;6138390;23;20246;-87
2023/04/11 07:28:39;;;;;;;;;;;;;;;;;;6137405;23;19967;-88
2023/04/11 07:31:06;;;;;;;;;;;;;;;;;;6137580;23;20364;-87
2023/04/11 07:33:32;;;;;;;;;;;;;;;;;;6138161;23;20327;-88
2023/04/11 07:35:58;;;;;;;;;;;;;;;;;;6139069;23;19999;-89
2023/04/11 07:38:28;;;;;;;;;;;;;;;;;;6140139;23;19916;-88
2023/04/11 07:40:54;;;;;;;;;;;;;;;;;;6141506;23;20301;-89
2023/04/11 07:43:20;;;;;;;;;;;;;;;;;;6139697;23;19917;-89
2023/04/11 07:45:46;;;;;;;;;;;;;;;;;;6141456;23;20327;-91
2023/04/11 07:48:12;;;;;;;;;;;;;;;;;;6138050;23;19939;-88
2023/04/11 07:50:37;;;;;;;;;;;;;;;;;;6161848;23;19991;-86
2023/04/11 07:53:03;;;;;;;;;;;;;;;;;;6136500;23;20351;-87
2023/04/11 07:55:29;;;;;;;;;;;;;;;;;;6161579;23;19947;-87
2023/04/11 07:57:55;;;;;;;;;;;;;;;;;;6137560;23;20339;-87
2023/04/11 08:00:21;;;;;;;;;;;;;;;;;;6137075;23;19940;-88
2023/04/11 08:02:47;;;;;;;;;;;;;;;;;;6137426;23;19920;-86
2023/04/11 08:05:13;;;;;;;;;;;;;;;;;;6138606;23;19963;-86
2023/04/11 08:07:40;;;;;;;;;;;;;;;;;;6163776;23;20331;-86
2023/04/11 08:10:06;;;;;;;;;;;;;;;;;;6139517;23;19916;-87
2023/04/11 08:12:31;;;;;;;;;;;;;;;;;;6139079;23;19923;-87
2023/04/11 08:14:57;;;;;;;;;;;;;;;;;;6138872;23;20323;-88
2023/04/11 08:17:24;;;;;;;;;;;;;;;;;;6141214;23;19924;-88
2023/04/11 08:19:50;;;;;;;;;;;;;;;;;;6163163;23;19916;-88
2023/04/11 08:22:16;;;;;;;;;;;;;;;;;;6138041;23;19924;-88
2023/04/11 08:24:42;;;;;;;;;;;;;;;;;;6140266;23;19954;-89
2023/04/11 08:27:08;;;;;;;;;;;;;;;;;;6138106;23;19917;-88
2023/04/11 08:29:34;;;;;;;;;;;;;;;;;;6161781;23;19916;-85
2023/04/11 08:32:00;;;;;;;;;;;;;;;;;;6135332;23;19916;-83
2023/04/11 08:34:26;;;;;;;;;;;;;;;;;;6161704;23;20342;-88
2023/04/11 08:36:52;;;;;;;;;;;;;;;;;;6139290;23;19917;-86
2023/04/11 08:39:18;;;;;;;;;;;;;;;;;;6138882;23;20314;-86
2023/04/11 08:41:44;;;;;;;;;;;;;;;;;;6138594;23;19926;-85
2023/04/11 08:44:10;;;;;;;;;;;;;;;;;;6139899;23;20267;-87
2023/04/11 08:46:36;;;;;;;;;;;;;;;;;;6139411;23;20239;-88
2023/04/11 08:49:02;;;;;;;;;;;;;;;;;;6138570;23;19923;-84
2023/04/11 08:51:28;;;;;;;;;;;;;;;;;;6136582;23;19983;-87
2023/04/11 08:53:56;;;;;;;;;;;;;;;;;;6136962;23;19924;-86
2023/04/11 08:56:22;;;;;;;;;;;;;;;;;;6138847;23;19916;-88
2023/04/11 08:58:48;;;;;;;;;;;;;;;;;;6139914;23;20002;-89
2023/04/11 09:01:14;;;;;;;;;;;;;;;;;;6140209;23;19921;-88
2023/04/11 09:03:40;;;;;;;;;;;;;;;;;;6137811;23;19916;-86
2023/04/11 09:06:08;;;;;;;;;;;;;;;;;;6141441;23;19917;-89
2023/04/11 09:08:34;;;;;;;;;;;;;;;;;;6142496;23;20250;-89
2023/04/11 09:11:00;;;;;;;;;;;;;;;;;;6145735;23;19916;-88
2023/04/11 09:13:25;;;;;;;;;;;;;;;;;;6166042;23;19916;-90
2023/04/11 09:15:51;;;;;;;;;;;;;;;;;;6167261;23;19916;-90
2023/04/11 09:18:17;;;;;;;;;;;;;;;;;;6144237;23;20362;-90
2023/04/11 09:20:43;;;;;;;;;;;;;;;;;;6140270;23;20439;-89
2023/04/11 09:23:09;;;;;;;;;;;;;;;;;;6143052;23;19916;-91
2023/04/11 09:25:36;;;;;;;;;;;;;;;;;;6145779;23;20294;-93
2023/04/11 09:28:02;;;;;;;;;;;;;;;;;;6145311;23;19923;-91
2023/04/11 09:30:30;;;;;;;;;;;;;;;;;;6147392;23;19917;-90
2023/04/11 09:32:56;;;;;;;;;;;;;;;;;;6140464;23;19920;-88
2023/04/11 09:35:23;;;;;;;;;;;;;;;;;;6164155;23;20410;-85
2023/04/11 09:37:49;;;;;;;;;;;;;;;;;;6135984;23;20249;-86
2023/04/11 09:40:17;;;;;;;;;;;;;;;;;;6143285;23;20243;-88
2023/04/11 09:42:43;;;;;;;;;;;;;;;;;;6140221;23;19931;-89
2023/04/11 09:45:09;;;;;;;;;;;;;;;;;;6137853;23;19948;-84
2023/04/11 09:47:34;;;;;;;;;;;;;;;;;;6136081;23;19920;-87
2023/04/11 09:50:10;;;;;;;;;;;;;;;;;;6135434;23;19928;-86
2023/04/11 09:52:47;;;;;;;;;;;;;;;;;;6135957;23;19923;-85
2023/04/11 09:55:15;;;;;;;;;;;;;;;;;;6136865;23;20343;-87
2023/04/11 09:57:44;;;;;;;;;;;;;;;;;;6135182;23;19966;-86
2023/04/11 10:00:13;;;;;;;;;;;;;;;;;;6133477;23;20327;-85
2023/04/11 10:02:47;;;;;;;;;;;;;;;;;;6133771;23;20451;-87
2023/04/11 10:05:14;;;;;;;;;;;;;;;;;;6136616;23;19916;-84
2023/04/11 10:07:40;;;;;;;;;;;;;;;;;;6136280;23;20329;-85
2023/04/11 10:10:06;;;;;;;;;;;;;;;;;;6135195;23;19924;-83
2023/04/11 10:12:32;;;;;;;;;;;;;;;;;;6136293;23;19967;-84
2023/04/11 10:14:58;;;;;;;;;;;;;;;;;;6135509;23;20331;-84
2023/04/11 10:17:33;;;;;;;;;;;;;;;;;;6160562;23;19939;-85
2023/04/11 10:19:59;;;;;;;;;;;;;;;;;;6135945;23;19920;-86
2023/04/11 10:22:25;;;;;;;;;;;;;;;;;;6134591;23;19931;-87
2023/04/11 10:24:51;;;;;;;;;;;;;;;;;;6158942;23;19920;-86
2023/04/11 10:27:20;;;;;;;;;;;;;;;;;;6133698;23;19922;-86
2023/04/11 10:29:46;;;;;;;;;;;;;;;;;;6134787;23;19922;-85
2023/04/11 10:32:12;;;;;;;;;;;;;;;;;;6135222;23;19947;-85
2023/04/11 10:34:39;;;;;;;;;;;;;;;;;;6135459;23;19947;-84
2023/04/11 10:37:06;;;;;;;;;;;;;;;;;;6136088;23;19921;-84
2023/04/11 10:39:32;;;;;;;;;;;;;;;;;;6136011;23;19999;-84
2023/04/11 10:41:58;;;;;;;;;;;;;;;;;;6160178;23;20313;-84
2023/04/11 10:44:24;;;;;;;;;;;;;;;;;;6135495;23;19970;-83
2023/04/11 10:46:50;;;;;;;;;;;;;;;;;;6136738;23;20483;-84
2023/04/11 10:49:16;;;;;;;;;;;;;;;;;;6135843;23;20282;-85
2023/04/11 10:51:42;;;;;;;;;;;;;;;;;;6136226;23;19966;-84
2023/04/11 10:54:08;;;;;;;;;;;;;;;;;;6135956;23;19916;-85
2023/04/11 10:56:34;;;;;;;;;;;;;;;;;;6159844;23;19950;-83
2023/04/11 10:59:00;;;;;;;;;;;;;;;;;;6161497;23;19916;-85
2023/04/11 11:01:26;;;;;;;;;;;;;;;;;;6136420;23;19928;-83
2023/04/11 11:03:52;;;;;;;;;;;;;;;;;;6161480;23;19994;-85
2023/04/11 11:06:20;;;;;;;;;;;;;;;;;;6136423;23;19991;-85
2023/04/11 11:08:46;;;;;;;;;;;;;;;;;;6136696;23;19927;-83
2023/04/11 11:11:12;;;;;;;;;;;;;;;;;;6137079;23;19951;-84
2023/04/11 11:13:38;;;;;;;;;;;;;;;;;;6160367;23;19920;-86
2023/04/11 11:16:04;;;;;;;;;;;;;;;;;;6137696;23;19956;-85
2023/04/11 11:18:30;;;;;;;;;;;;;;;;;;6138336;23;19947;-84
2023/04/11 11:24:00;;;;;;;;;;;;;;;;;;6199086;23;20038;-86
2023/04/11 11:26:26;;;;;;;;;;;;;;;;;;6139055;23;20039;-88
2023/04/11 11:31:41;;;;;;;;;;;;;;;;;;6163700;23;20232;-87
2023/04/11 11:34:07;;;;;;;;;;;;;;;;;;6164230;23;19943;-91
2023/04/11 11:36:33;;;;;;;;;;;;;;;;;;6163795;23;19923;-91
2023/04/11 11:38:58;;;;;;;;;;;;;;;;;;6144790;23;20258;-91
2023/04/11 11:41:25;;;;;;;;;;;;;;;;;;6144973;23;20023;-89
2023/04/11 11:43:51;;;;;;;;;;;;;;;;;;6170954;23;19989;-89
2023/04/11 11:46:17;;;;;;;;;;;;;;;;;;6145216;23;19916;-87
2023/04/11 11:48:43;;;;;;;;;;;;;;;;;;6142451;23;19916;-88
2023/04/11 11:51:09;;;;;;;;;;;;;;;;;;6164864;23;19916;-89
2023/04/11 11:53:35;;;;;;;;;;;;;;;;;;6136862;23;20015;-88
2023/04/11 11:56:01;;;;;;;;;;;;;;;;;;6142046;23;19922;-89
2023/04/11 11:58:27;;;;;;;;;;;;;;;;;;6140666;23;19943;-88
2023/04/11 12:00:53;;;;;;;;;;;;;;;;;;6140313;23;19951;-88
2023/04/11 12:03:19;;;;;;;;;;;;;;;;;;6142100;23;19917;-88
2023/04/11 12:05:46;;;;;;;;;;;;;;;;;;6140735;23;20402;-92
2023/04/11 12:08:12;;;;;;;;;;;;;;;;;;6139870;23;19920;-88
2023/04/11 12:10:38;;;;;;;;;;;;;;;;;;6139886;23;20330;-89
2023/04/11 12:13:04;;;;;;;;;;;;;;;;;;6163888;23;19923;-86
2023/04/11 12:15:30;;;;;;;;;;;;;;;;;;6143075;23;19917;-90
2023/04/11 12:17:56;;;;;;;;;;;;;;;;;;6139821;23;20353;-88
2023/04/11 12:20:22;;;;;;;;;;;;;;;;;;6168861;23;19916;-91
2023/04/11 12:22:56;;;;;;;;;;;;;;;;;;6173142;23;19927;-92
2023/04/11 12:25:22;;;;;;;;;;;;;;;;;;6144341;23;19916;-89
2023/04/11 12:27:48;;;;;;;;;;;;;;;;;;6166621;23;20323;-88
2023/04/11 12:30:14;;;;;;;;;;;;;;;;;;6141188;23;19951;-88
2023/04/11 12:32:40;;;;;;;;;;;;;;;;;;6163198;23;19960;-87
2023/04/11 12:35:06;;;;;;;;;;;;;;;;;;6137604;23;20353;-86
2023/04/11 12:37:32;;;;;;;;;;;;;;;;;;6138672;23;20266;-90
2023/04/11 12:39:58;;;;;;;;;;;;;;;;;;6137856;23;20331;-87
2023/04/11 12:42:25;;;;;;;;;;;;;;;;;;6138444;23;20295;-88
2023/04/11 12:44:51;;;;;;;;;;;;;;;;;;6139410;23;19916;-87
2023/04/11 12:47:17;;;;;;;;;;;;;;;;;;6136850;23;19917;-86
2023/04/11 12:49:43;;;;;;;;;;;;;;;;;;6141049;23;19987;-88
2023/04/11 12:52:09;;;;;;;;;;;;;;;;;;6144703;23;19939;-85
2023/04/11 12:54:36;;;;;;;;;;;;;;;;;;6162851;23;19920;-85
2023/04/11 12:57:02;;;;;;;;;;;;;;;;;;6138475;23;19924;-87
2023/04/11 12:59:28;;;;;;;;;;;;;;;;;;6139079;23;20338;-87
2023/04/11 13:01:54;;;;;;;;;;;;;;;;;;6164064;23;19921;-90
2023/04/11 13:04:20;;;;;;;;;;;;;;;;;;6139030;23;19916;-86
2023/04/11 13:06:46;;;;;;;;;;;;;;;;;;6140431;23;19924;-88
2023/04/11 13:09:12;;;;;;;;;;;;;;;;;;6138622;23;19994;-86
2023/04/11 13:11:40;;;;;;;;;;;;;;;;;;6163047;23;20254;-89
2023/04/11 13:14:06;;;;;;;;;;;;;;;;;;6166744;23;20359;-87
2023/04/11 13:16:32;;;;;;;;;;;;;;;;;;6165338;23;19948;-86
2023/04/11 13:18:58;;;;;;;;;;;;;;;;;;6139868;23;19923;-86
2023/04/11 13:21:32;;;;;;;;;;;;;;;;;;6141515;23;19971;-89
2023/04/11 13:23:58;;;;;;;;;;;;;;;;;;6144322;23;20041;-90
2023/04/11 13:26:25;;;;;;;;;;;;;;;;;;6145754;23;19987;-90
2023/04/11 13:28:51;;;;;;;;;;;;;;;;;;6145630;23;19952;-89
2023/04/11 13:31:18;;;;;;;;;;;;;;;;;;6145163;23;19923;-90
2023/04/11 13:33:46;;;;;;;;;;;;;;;;;;6145996;23;19976;-90
2023/04/11 13:36:15;;;;;;;;;;;;;;;;;;6194918;23;19916;-88
2023/04/11 13:38:41;;;;;;;;;;;;;;;;;;6137170;23;20294;-86
2023/04/11 13:41:07;;;;;;;;;;;;;;;;;;6159304;23;19928;-83
2023/04/11 13:46:06;;;;;;;;;;;;;;;;;;6161788;23;19920;-84
2023/04/11 13:48:32;;;;;;;;;;;;;;;;;;6136758;23;20339;-83
2023/04/11 13:50:58;;;;;;;;;;;;;;;;;;6136566;23;19923;-83
2023/04/11 13:56:19;;;;;;;;;;;;;;;;;;6161813;23;20228;-85
2023/04/11 13:58:45;;;;;;;;;;;;;;;;;;6136521;23;19942;-85
2023/04/11 14:01:11;;;;;;;;;;;;;;;;;;6136410;23;20343;-84
2023/04/11 14:03:37;;;;;;;;;;;;;;;;;;6136897;23;19916;-83
2023/04/11 14:06:07;;;;;;;;;;;;;;;;;;6136722;23;19916;-83
2023/04/11 14:08:33;;;;;;;;;;;;;;;;;;6135066;23;20350;-83
2023/04/11 14:11:00;;;;;;;;;;;;;;;;;;6159479;23;19920;-83
2023/04/11 14:13:26;;;;;;;;;;;;;;;;;;6134926;23;19920;-84
2023/04/11 14:15:52;;;;;;;;;;;;;;;;;;6135230;23;20521;-83
2023/04/11 14:18:18;;;;;;;;;;;;;;;;;;6135163;23;19939;-84
2023/04/11 14:20:43;;;;;;;;;;;;;;;;;;6134957;23;20301;-83
2023/04/11 14:23:09;;;;;;;;;;;;;;;;;;6135363;23;19916;-84
2023/04/11 14:25:35;;;;;;;;;;;;;;;;;;6134631;23;19920;-82
2023/04/11 14:28:01;;;;;;;;;;;;;;;;;;6159612;23;20262;-85
2023/04/11 14:30:27;;;;;;;;;;;;;;;;;;6134538;23;19927;-85
2023/04/11 14:32:53;;;;;;;;;;;;;;;;;;6135119;23;19923;-83
2023/04/11 14:35:19;;;;;;;;;;;;;;;;;;6135090;23;19951;-84
2023/04/11 14:37:46;;;;;;;;;;;;;;;;;;6134969;23;19924;-83
2023/04/11 14:40:12;;;;;;;;;;;;;;;;;;6134907;23;19916;-84
2023/04/11 14:42:38;;;;;;;;;;;;;;;;;;6135155;23;19921;-83
2023/04/11 14:45:04;;;;;;;;;;;;;;;;;;6135106;23;19990;-83
2023/04/11 14:47:30;;;;;;;;;;;;;;;;;;6136313;23;19920;-84
2023/04/11 14:49:56;;;;;;;;;;;;;;;;;;6136458;23;19925;-84
2023/04/11 14:52:22;;;;;;;;;;;;;;;;;;6161441;23;19916;-85
2023/04/11 14:54:48;;;;;;;;;;;;;;;;;;6136831;23;20445;-84
2023/04/11 14:57:14;;;;;;;;;;;;;;;;;;6136791;23;19916;-82
2023/04/11 14:59:42;;;;;;;;;;;;;;;;;;6137212;23;20249;-82
2023/04/11 15:02:08;;;;;;;;;;;;;;;;;;6136942;23;19924;-86
2023/04/11 15:04:34;;;;;;;;;;;;;;;;;;6137539;23;19966;-85
2023/04/11 15:07:01;;;;;;;;;;;;;;;;;;6137296;23;20301;-83
2023/04/11 15:09:28;;;;;;;;;;;;;;;;;;6136590;23;19916;-82
2023/04/11 15:11:54;;;;;;;;;;;;;;;;;;6160865;23;19920;-86
2023/04/11 15:14:22;;;;;;;;;;;;;;;;;;6161190;23;20385;-85
2023/04/11 15:16:48;;;;;;;;;;;;;;;;;;6135433;23;20250;-85
2023/04/11 15:19:14;;;;;;;;;;;;;;;;;;6135150;23;19916;-85
2023/04/11 15:21:40;;;;;;;;;;;;;;;;;;6136183;23;19920;-89
2023/04/11 15:24:06;;;;;;;;;;;;;;;;;;6159703;23;19931;-83
2023/04/11 15:26:32;;;;;;;;;;;;;;;;;;6136020;23;19916;-87
2023/04/11 15:28:58;;;;;;;;;;;;;;;;;;6159812;23;20095;-84
2023/04/11 15:31:24;;;;;;;;;;;;;;;;;;6134708;23;20254;-85
2023/04/11 15:33:50;;;;;;;;;;;;;;;;;;6136338;23;19983;-84
2023/04/11 15:36:16;;;;;;;;;;;;;;;;;;6161102;23;20029;-84
2023/04/11 15:38:42;;;;;;;;;;;;;;;;;;6136614;23;19916;-85
2023/04/11 15:41:08;;;;;;;;;;;;;;;;;;6136263;23;20220;-86
2023/04/11 15:43:34;;;;;;;;;;;;;;;;;;6136392;23;19916;-86
2023/04/11 15:46:00;;;;;;;;;;;;;;;;;;6160488;23;19923;-87
2023/04/11 15:48:27;;;;;;;;;;;;;;;;;;6137887;23;19920;-86
2023/04/11 15:50:53;;;;;;;;;;;;;;;;;;6135151;23;20232;-86
2023/04/11 15:53:19;;;;;;;;;;;;;;;;;;6135748;23;19967;-83
2023/04/11 15:55:46;;;;;;;;;;;;;;;;;;6136559;23;19916;-85
2023/04/11 15:58:11;;;;;;;;;;;;;;;;;;6135733;23;19916;-85
2023/04/11 16:00:37;;;;;;;;;;;;;;;;;;6135991;23;19931;-85
2023/04/11 16:03:03;;;;;;;;;;;;;;;;;;6135987;23;19955;-85
2023/04/11 16:05:30;;;;;;;;;;;;;;;;;;6136974;23;19916;-86
2023/04/11 16:07:56;;;;;;;;;;;;;;;;;;6136571;23;19920;-87
2023/04/11 16:10:22;;;;;;;;;;;;;;;;;;6136281;23;20309;-86
2023/04/11 16:12:48;;;;;;;;;;;;;;;;;;6135871;23;20330;-86
2023/04/11 16:15:14;;;;;;;;;;;;;;;;;;6136432;23;19917;-86
2023/04/11 16:17:40;;;;;;;;;;;;;;;;;;6135387;23;19917;-86
2023/04/11 16:20:07;;;;;;;;;;;;;;;;;;6135510;23;19920;-85
2023/04/11 16:22:33;;;;;;;;;;;;;;;;;;6136346;23;19920;-85
2023/04/11 16:25:02;;;;;;;;;;;;;;;;;;6136595;23;19993;-85
2023/04/11 16:27:27;;;;;;;;;;;;;;;;;;6136351;23;19916;-85
2023/04/11 16:29:58;;;;;;;;;;;;;;;;;;6134509;23;19916;-86
2023/04/11 16:32:25;;;;;;;;;;;;;;;;;;6135516;23;19916;-86
2023/04/11 16:34:53;;;;;;;;;;;;;;;;;;6135580;23;19983;-86
2023/04/11 16:37:19;;;;;;;;;;;;;;;;;;6135825;23;19916;-85
2023/04/11 16:39:45;;;;;;;;;;;;;;;;;;6136721;23;19947;-84
2023/04/11 16:42:11;;;;;;;;;;;;;;;;;;6135943;23;19920;-85
2023/04/11 16:44:37;;;;;;;;;;;;;;;;;;6136460;23;19923;-85
2023/04/11 16:47:03;;;;;;;;;;;;;;;;;;6136104;23;19978;-85
2023/04/11 16:49:29;;;;;;;;;;;;;;;;;;6136759;23;20594;-84